Date,TemperatureHighF,TemperatureAvgF,TemperatureLowF,DewpointHighF,DewpointAvgF,DewpointLowF,HumidityHigh,HumidityAvg,HumidityLow,PressureMaxIn,PressureMinIn,WindSpeedMaxMPH,WindSpeedAvgMPH,GustSpeedMaxMPH,PrecipitationSumIn
2012-1-1,57,45,38,-100,-100,-100,0,0,100,0.00,40.00,0,-999,0,0.00
2012-1-2,53,42,31,-100,-100,-100,0,0,100,0.00,40.00,0,-999,0,0.00
2012-1-3,56,37,24,-100,-100,-100,0,0,100,0.00,40.00,0,-999,0,0.00
2012-1-4,52,42,33,-100,-100,-100,0,0,100,0.00,40.00,0,-999,0,0.01
2012-1-5,54,35,22,-100,-100,-100,0,0,100,0.00,40.00,0,-999,0,0.00
2012-1-6,56,38,25,-100,-100,-100,0,0,100,0.00,40.00,0,-999,0,0.00
2012-1-7,47,36,28,-100,-100,-100,0,0,100,0.00,40.00,0,-999,0,0.00
2012-1-8,39,33,28,-100,-100,-100,0,0,100,0.00,40.00,0,-999,0,0.00
2012-1-9,48,33,20,-100,-100,-100,0,0,100,0.00,40.00,0,-999,0,0.00
2012-1-10,52,34,23,-100,-100,-100,0,0,100,0.00,40.00,0,-999,0,0.00
2012-1-11,51,37,27,-100,-100,-100,0,0,100,0.00,40.00,0,-999,0,0.00
2012-1-12,39,32,27,-100,-100,-100,0,0,100,0.00,40.00,0,-999,0,0.00
2012-1-13,48,35,25,-100,-100,-100,0,0,100,0.00,40.00,0,-999,0,0.01
2012-1-14,51,39,27,-100,-100,-100,0,0,100,0.00,40.00,0,-999,0,0.00
2012-1-15,42,35,29,-100,-100,-100,0,0,100,0.00,40.00,0,-999,0,0.00
2012-1-16,37,33,31,-100,-100,-100,0,0,100,0.00,40.00,0,-999,0,0.02
2012-1-17,40,32,26,-100,-100,-100,0,0,100,0.00,40.00,0,-999,0,0.01
2012-1-18,47,31,20,-100,-100,-100,0,0,100,0.00,40.00,0,-999,0,0.00
2012-1-19,55,36,24,-100,-100,-100,0,0,100,0.00,40.00,0,-999,0,0.00
2012-1-20,54,36,26,-100,-100,-100,0,0,100,0.00,40.00,0,-999,0,0.00
2012-1-21,39,33,28,-100,-100,-100,0,0,100,0.00,40.00,0,-999,0,0.02
2012-1-22,39,30,20,-100,-100,-100,0,0,100,0.00,40.00,0,-999,0,0.01
2012-1-23,38,28,17,-100,-100,-100,0,0,100,0.00,40.00,0,-999,0,0.00
2012-1-24,42,32,21,-100,-100,-100,0,0,100,0.00,40.00,0,-999,0,0.01
2012-1-25,53,39,24,-100,-100,-100,0,0,100,0.00,40.00,0,-999,0,0.00
2012-1-26,53,40,29,-100,-100,-100,0,0,100,0.00,40.00,0,-999,0,0.00
2012-1-27,45,39,32,-100,-100,-100,0,0,100,0.00,40.00,0,-999,0,0.00
2012-1-28,45,35,29,-100,-100,-100,0,0,100,0.00,40.00,0,-999,0,0.00
2012-1-29,51,39,28,-100,-100,-100,0,0,100,0.00,40.00,0,-999,0,0.00
2012-1-30,49,34,20,-100,-100,-100,0,0,100,0.00,40.00,0,-999,0,0.00
2012-1-31,48,36,27,-100,-100,-100,0,0,100,0.00,40.00,0,-999,0,0.00
2012-2-1,50,33,21,-100,-100,-100,0,0,100,0.00,40.00,0,-999,0,0.00
2012-2-2,38,30,24,-100,-100,-100,0,0,100,0.00,40.00,0,-999,0,0.00
2012-2-3,38,28,17,-100,-100,-100,0,0,100,0.00,40.00,0,-999,0,0.00
2012-2-4,40,32,27,-100,-100,-100,0,0,100,0.00,40.00,0,-999,0,0.00
2012-2-5,44,32,26,-100,-100,-100,0,0,100,0.00,40.00,0,-999,0,0.00
2012-2-6,45,31,21,-100,-100,-100,0,0,100,0.00,40.00,0,-999,0,0.00
2012-2-7,41,33,28,-100,-100,-100,0,0,100,0.00,40.00,0,-999,0,0.00
2012-2-8,51,39,33,-100,-100,-100,0,0,100,0.00,40.00,0,-999,0,0.00
2012-2-9,55,40,28,-100,-100,-100,0,0,100,0.00,40.00,0,-999,0,0.00
2012-2-10,54,41,30,-100,-100,-100,0,0,100,0.00,40.00,0,-999,0,0.00
2012-2-11,50,39,27,-100,-100,-100,0,0,100,0.00,40.00,0,-999,0,0.00
2012-2-12,39,36,32,-100,-100,-100,0,0,100,0.00,40.00,0,-999,0,0.01
2012-2-13,33,32,31,-100,-100,-100,0,0,100,0.00,40.00,0,-999,0,0.02
2012-2-14,36,30,27,-100,-100,-100,0,0,100,0.00,40.00,0,-999,0,0.02
2012-2-15,31,27,23,-100,-100,-100,0,0,100,0.00,40.00,0,-999,0,0.01
2012-2-16,42,32,17,-100,-100,-100,0,0,100,0.00,40.00,0,-999,0,0.01
2012-2-17,48,36,26,-100,-100,-100,0,0,100,0.00,40.00,0,-999,0,0.01
2012-2-18,46,31,15,-100,-100,-100,0,0,100,0.00,40.00,0,-999,0,0.00
2012-2-19,38,31,25,-100,-100,-100,0,0,100,0.00,40.00,0,-999,0,0.01
2012-2-20,44,29,10,-100,-100,-100,0,0,100,0.00,40.00,0,-999,0,0.01
2012-2-21,50,33,16,-100,-100,-100,0,0,100,0.00,40.00,0,-999,0,0.00
2012-2-22,54,38,27,-100,-100,-100,0,0,100,0.00,40.00,0,-999,0,0.00
2012-2-23,54,41,28,-100,-100,-100,0,0,100,0.00,40.00,0,-999,0,0.00
2012-2-24,49,36,28,-100,-100,-100,0,0,100,0.00,40.00,0,-999,0,0.00
2012-2-25,53,39,25,-100,-100,-100,0,0,100,0.00,40.00,0,-999,0,0.00
2012-2-26,51,38,27,-100,-100,-100,0,0,100,0.00,40.00,0,-999,0,0.00
2012-2-27,46,38,29,-100,-100,-100,0,0,100,0.00,40.00,0,-999,0,0.01
2012-2-28,31,26,18,-100,-100,-100,0,0,100,0.00,40.00,0,-999,0,0.02
2012-2-29,43,26,6,-100,-100,-100,0,0,100,0.00,40.00,0,-999,0,0.01
2012-3-1,45,34,25,-100,-100,-100,0,0,100,0.00,40.00,0,-999,0,0.00
2012-3-2,35,29,19,-100,-100,-100,0,0,100,0.00,40.00,0,-999,0,0.00
2012-3-3,51,35,18,-100,-100,-100,0,0,100,0.00,40.00,0,-999,0,0.00
2012-3-4,55,40,27,-100,-100,-100,0,0,100,0.00,40.00,0,-999,0,0.00
2012-3-5,58,41,26,-100,-100,-100,0,0,100,0.00,40.00,0,-999,0,0.00
2012-3-6,52,41,29,-100,-100,-100,0,0,100,0.00,40.00,0,-999,0,0.00
2012-3-7,35,28,22,-100,-100,-100,0,0,100,0.00,40.00,0,-999,0,0.00
2012-3-8,47,36,22,-100,-100,-100,0,0,100,0.00,40.00,0,-999,0,0.01
2012-3-9,47,37,30,-100,-100,-100,0,0,100,0.00,40.00,0,-999,0,0.00
2012-3-10,51,37,29,-100,-100,-100,0,0,100,0.00,40.00,0,-999,0,0.00
2012-3-11,50,37,26,-100,-100,-100,0,0,100,0.00,40.00,0,-999,0,0.00
2012-3-12,54,41,28,-100,-100,-100,0,0,100,0.00,40.00,0,-999,0,0.00
2012-3-13,56,40,25,-100,-100,-100,0,0,100,0.00,40.00,0,-999,0,0.00
2012-3-14,56,41,26,-100,-100,-100,0,0,100,0.00,40.00,0,-999,0,0.00
2012-3-15,60,42,26,-100,-100,-100,0,0,100,0.00,40.00,0,-999,0,0.00
2012-3-16,58,44,27,-100,-100,-100,0,0,100,0.00,40.00,0,-999,0,0.00
2012-3-17,50,43,38,-100,-100,-100,0,0,100,0.00,40.00,0,-999,0,0.01
2012-3-18,38,27,22,-100,-100,-100,0,0,100,0.00,40.00,0,-999,0,0.09
2012-3-19,29,24,14,-100,-100,-100,0,0,100,0.00,40.00,0,-999,0,0.03
2012-3-20,41,32,16,-100,-100,-100,0,0,100,0.00,40.00,0,-999,0,0.00
2012-3-21,55,42,26,-100,-100,-100,0,0,100,0.00,40.00,0,-999,0,0.00
2012-3-22,60,40,21,-100,-100,-100,0,0,100,0.00,40.00,0,-999,0,0.00
2012-3-23,57,41,26,-100,-100,-100,0,0,100,0.00,40.00,0,-999,0,0.00
2012-3-24,57,41,26,-100,-100,-100,0,0,100,0.00,40.00,0,-999,0,0.01
2012-3-25,52,42,31,-100,-100,-100,0,0,100,0.00,40.00,0,-999,0,0.00
2012-3-26,51,42,31,-100,-100,-100,0,0,100,0.00,40.00,0,-999,0,0.00
2012-3-27,56,42,27,-100,-100,-100,0,0,100,0.00,40.00,0,-999,0,0.00
2012-3-28,58,44,29,-100,-100,-100,0,0,100,0.00,40.00,0,-999,0,0.00
2012-3-29,58,44,30,-100,-100,-100,0,0,100,0.00,40.00,0,-999,0,0.00
2012-3-30,63,46,31,-100,-100,-100,0,0,100,0.00,40.00,0,-999,0,0.00
2012-3-31,62,48,31,-100,-100,-100,0,0,100,0.00,40.00,0,-999,0,0.00
2012-4-1,48,42,32,-100,-100,-100,0,0,100,0.00,40.00,0,-999,0,0.00
2012-4-2,46,35,27,-100,-100,-100,0,0,100,0.00,40.00,0,-999,0,0.00
2012-4-3,56,40,28,-100,-100,-100,0,0,100,0.00,40.00,0,-999,0,0.00
2012-4-4,58,44,29,-100,-100,-100,0,0,100,0.00,40.00,0,-999,0,0.00
2012-4-5,56,45,31,-100,-100,-100,0,0,100,0.00,40.00,0,-999,0,0.00
2012-4-6,56,44,34,-100,-100,-100,0,0,100,0.00,40.00,0,-999,0,0.00
2012-4-7,60,45,30,-100,-100,-100,0,0,100,0.00,40.00,0,-999,0,0.00
2012-4-8,65,48,33,-100,-100,-100,0,0,100,0.00,40.00,0,-999,0,0.00
2012-4-9,65,47,30,-100,-100,-100,0,0,100,0.00,40.00,0,-999,0,0.00
2012-4-10,65,48,31,-100,-100,-100,0,0,100,0.00,40.00,0,-999,0,0.00
2012-4-11,49,43,38,-100,-100,-100,0,0,100,0.00,40.00,0,-999,0,0.01
2012-4-12,49,41,35,-100,-100,-100,0,0,100,0.00,40.00,0,-999,0,0.01
2012-4-13,48,40,32,-100,-100,-100,0,0,100,0.00,40.00,0,-999,0,0.00
2012-4-14,39,28,26,-100,-100,-100,0,0,100,0.00,40.00,0,-999,0,0.05
2012-4-15,48,36,29,-100,-100,-100,0,0,100,0.00,40.00,0,-999,0,0.01
2012-4-16,56,42,27,-100,-100,-100,0,0,100,0.00,40.00,0,-999,0,0.00
2012-4-17,61,45,30,-100,-100,-100,0,0,100,0.00,40.00,0,-999,0,0.00
2012-4-18,63,48,32,-100,-100,-100,0,0,100,0.00,40.00,0,-999,0,0.00
2012-4-19,67,52,35,-100,-100,-100,0,0,100,0.00,40.00,0,-999,0,0.00
2012-4-20,69,56,45,-100,-100,-100,0,0,100,0.00,40.00,0,-999,0,0.00
2012-4-21,73,57,41,-100,-100,-100,0,0,100,0.00,40.00,0,-999,0,0.00
2012-4-22,74,57,40,-100,-100,-100,0,0,100,0.00,40.00,0,-999,0,0.00
2012-4-23,75,57,39,-100,-100,-100,0,0,100,0.00,40.00,0,-999,0,0.00
2012-4-24,69,54,37,-100,-100,-100,0,0,100,0.00,40.00,0,-999,0,0.00
2012-4-25,66,52,39,-100,-100,-100,0,0,100,0.00,40.00,0,-999,0,0.01
2012-4-26,53,44,36,-100,-100,-100,0,0,100,0.00,40.00,0,-999,0,0.02
2012-4-27,61,47,32,-100,-100,-100,0,0,100,0.00,40.00,0,-999,0,0.01
2012-4-28,64,50,40,-100,-100,-100,0,0,100,0.00,40.00,0,-999,0,0.00
2012-4-29,64,50,34,-100,-100,-100,0,0,100,0.00,40.00,0,-999,0,0.00
2012-4-30,65,52,33,-100,-100,-100,0,0,100,0.00,40.00,0,-999,0,0.00
2012-5-1,61,51,40,-100,-100,-100,0,0,100,0.00,40.00,0,-999,0,0.00
2012-5-2,61,51,42,-100,-100,-100,0,0,100,0.00,40.00,0,-999,0,0.00
2012-5-3,64,53,39,-100,-100,-100,0,0,100,0.00,40.00,0,-999,0,0.00
2012-5-4,66,53,37,-100,-100,-100,0,0,100,0.00,40.00,0,-999,0,0.00
2012-5-5,66,50,38,-100,-100,-100,0,0,100,0.00,40.00,0,-999,0,0.00
2012-5-6,61,47,31,-100,-100,-100,0,0,100,0.00,40.00,0,-999,0,0.00
2012-5-7,62,47,31,-100,-100,-100,0,0,100,0.00,40.00,0,-999,0,0.00
2012-5-8,64,49,33,-100,-100,-100,0,0,100,0.00,40.00,0,-999,0,0.00
2012-5-9,66,55,45,-100,-100,-100,0,0,100,0.00,40.00,0,-999,0,0.00
2012-5-10,71,55,36,-100,-100,-100,0,0,100,0.00,40.00,0,-999,0,0.00
2012-5-11,70,55,38,-100,-100,-100,0,0,100,0.00,40.00,0,-999,0,0.00
2012-5-12,72,52,35,-100,-100,-100,0,0,100,0.00,40.00,0,-999,0,0.00
2012-5-13,73,58,37,-100,-100,-100,0,0,100,0.00,40.00,0,-999,0,0.00
2012-5-14,73,60,43,-100,-100,-100,0,0,100,0.00,40.00,0,-999,0,0.00
2012-5-15,75,59,40,-100,-100,-100,0,0,100,0.00,40.00,0,-999,0,0.00
2012-5-16,73,57,41,-100,-100,-100,0,0,100,0.00,40.00,0,-999,0,0.00
2012-5-17,74,59,39,-100,-100,-100,0,0,100,0.00,40.00,0,-999,0,0.00
2012-5-18,67,58,42,-100,-100,-100,0,0,100,0.00,40.00,0,-999,0,0.00
2012-5-19,70,52,34,-100,-100,-100,0,0,100,0.00,40.00,0,-999,0,0.00
2012-5-20,76,58,38,-100,-100,-100,0,0,100,0.00,40.00,0,-999,0,0.00
2012-5-21,78,61,40,-100,-100,-100,0,0,100,0.00,40.00,0,-999,0,0.00
2012-5-22,77,62,40,-100,-100,-100,0,0,100,0.00,40.00,0,-999,0,0.00
2012-5-23,73,62,46,-100,-100,-100,0,0,100,0.00,40.00,0,-999,0,0.00
2012-5-24,71,59,44,-100,-100,-100,0,0,100,0.00,40.00,0,-999,0,0.82
2012-5-25,63,55,47,-100,-100,-100,0,0,100,0.00,40.00,0,-999,0,0.82
2012-5-26,54,46,33,-100,-100,-100,0,0,100,0.00,40.00,0,-999,0,0.01
2012-5-27,63,46,28,-100,-100,-100,0,0,100,0.00,40.00,0,-999,0,0.00
2012-5-28,69,52,32,-100,-100,-100,0,0,100,0.00,40.00,0,-999,0,0.00
2012-5-29,72,55,33,-100,-100,-100,0,0,100,0.00,40.00,0,-999,0,0.00
2012-5-30,76,57,38,-100,-100,-100,0,0,100,0.00,40.00,0,-999,0,0.00
2012-5-31,82,66,44,-100,-100,-100,0,0,100,0.00,40.00,0,-999,0,0.00
2012-6-1,83,66,44,-100,-100,-100,0,0,100,0.00,40.00,0,-999,0,0.00
2012-6-2,77,62,48,-100,-100,-100,0,0,100,0.00,40.00,0,-999,0,0.00
2012-6-3,77,59,39,-100,-100,-100,0,0,100,0.00,40.00,0,-999,0,0.00
2012-6-4,74,59,37,-100,-100,-100,0,0,100,0.00,40.00,0,-999,0,0.00
2012-6-5,72,60,46,-100,-100,-100,0,0,100,0.00,40.00,0,-999,0,0.00
2012-6-6,74,58,38,-100,-100,-100,0,0,100,0.00,40.00,0,-999,0,0.00
2012-6-7,76,59,38,-100,-100,-100,0,0,100,0.00,40.00,0,-999,0,0.00
2012-6-8,76,61,40,-100,-100,-100,0,0,100,0.00,40.00,0,-999,0,0.00
2012-6-9,74,62,48,-100,-100,-100,0,0,100,0.00,40.00,0,-999,0,0.00
2012-6-10,74,60,48,-100,-100,-100,0,0,100,0.00,40.00,0,-999,0,0.00
2012-6-11,77,61,41,-100,-100,-100,0,0,100,0.00,40.00,0,-999,0,0.00
2012-6-12,80,63,43,-100,-100,-100,0,0,100,0.00,40.00,0,-999,0,0.00
2012-6-13,79,62,42,-100,-100,-100,0,0,100,0.00,40.00,0,-999,0,0.00
2012-6-14,76,61,44,-100,-100,-100,0,0,100,0.00,40.00,0,-999,0,0.00
2012-6-15,75,60,42,-100,-100,-100,0,0,100,0.00,40.00,0,-999,0,0.00
2012-6-16,80,64,42,-100,-100,-100,0,0,100,0.00,40.00,0,-999,0,0.00
2012-6-17,81,56,45,-100,-100,-100,0,0,100,0.00,40.00,0,-999,0,0.00
2012-6-18,82,69,55,-100,-100,-100,0,0,100,0.00,40.00,0,-999,0,0.00
2012-6-19,82,68,48,-100,-100,-100,0,0,100,0.00,40.00,0,-999,0,0.00
2012-6-20,86,71,45,-100,-100,-100,0,0,100,0.00,40.00,0,-999,0,0.00
2012-6-21,83,66,46,-100,-100,-100,0,0,100,0.00,40.00,0,-999,0,0.00
2012-6-22,83,67,48,-100,-100,-100,0,0,100,0.00,40.00,0,-999,0,0.00
2012-6-23,83,66,45,-100,-100,-100,0,0,100,0.00,40.00,0,-999,0,0.00
2012-6-24,82,67,51,-100,-100,-100,0,0,100,0.00,40.00,0,-999,0,0.00
2012-6-25,81,68,54,-100,-100,-100,0,0,100,0.00,40.00,0,-999,0,0.00
2012-6-26,79,67,51,-100,-100,-100,0,0,100,0.00,40.00,0,-999,0,0.00
2012-6-27,82,65,50,-100,-100,-100,0,0,100,0.00,40.00,0,-999,0,0.00
2012-6-28,82,68,51,-100,-100,-100,0,0,100,0.00,40.00,0,-999,0,0.00
2012-6-29,84,70,51,-100,-100,-100,0,0,100,0.00,40.00,0,-999,0,0.00
2012-6-30,85,72,51,-100,-100,-100,0,0,100,0.00,40.00,0,-999,0,0.00
2012-7-1,83,70,52,-100,-100,-100,0,0,100,0.00,40.00,0,-999,0,0.00
2012-7-2,81,70,55,-100,-100,-100,0,0,100,0.00,40.00,0,-999,0,0.00
2012-7-3,80,67,56,-100,-100,-100,0,0,100,0.00,40.00,0,-999,0,0.00
2012-7-4,70,61,54,-100,-100,-100,0,0,100,0.00,40.00,0,-999,0,0.00
2012-7-5,76,64,52,-100,-100,-100,0,0,100,0.00,40.00,0,-999,0,0.00
2012-7-6,76,66,53,-100,-100,-100,0,0,100,0.00,40.00,0,-999,0,0.00
2012-7-7,82,68,53,-100,-100,-100,0,0,100,0.00,40.00,0,-999,0,0.01
2012-7-8,81,68,51,-100,-100,-100,0,0,100,0.00,40.00,0,-999,0,0.00
2012-7-9,81,68,51,-100,-100,-100,0,0,100,0.00,40.00,0,-999,0,0.01
2012-7-10,85,68,52,-100,-100,-100,0,0,100,0.00,40.00,0,-999,0,0.00
2012-7-11,77,64,52,-100,-100,-100,0,0,100,0.00,40.00,0,-999,0,0.02
2012-7-12,74,62,55,-100,-100,-100,0,0,100,0.00,40.00,0,-999,0,0.02
2012-7-13,75,62,55,-100,-100,-100,0,0,100,0.00,40.00,0,-999,0,0.00
2012-7-14,65,58,51,-100,-100,-100,0,0,100,0.00,40.00,0,-999,0,0.05
2012-7-15,71,60,50,-100,-100,-100,0,0,100,0.00,40.00,0,-999,0,0.06
2012-7-16,71,58,49,-100,-100,-100,0,0,100,0.00,40.00,0,-999,0,0.06
2012-7-17,73,66,53,-100,-100,-100,0,0,100,0.00,40.00,0,-999,0,0.00
2012-7-18,77,62,46,-100,-100,-100,0,0,100,0.00,40.00,0,-999,0,0.00
2012-7-19,76,66,57,-100,-100,-100,0,0,100,0.00,40.00,0,-999,0,0.00
2012-7-20,81,68,58,-100,-100,-100,0,0,100,0.00,40.00,0,-999,0,0.00
2012-7-21,74,64,55,-100,-100,-100,0,0,100,0.00,40.00,0,-999,0,0.01
2012-7-22,79,64,53,-100,-100,-100,0,0,100,0.00,40.00,0,-999,0,0.01
2012-7-23,76,65,58,-100,-100,-100,0,0,100,0.00,40.00,0,-999,0,0.00
2012-7-24,71,60,55,-100,-100,-100,0,0,100,0.00,40.00,0,-999,0,0.09
2012-7-25,75,63,55,-100,-100,-100,0,0,100,0.00,40.00,0,-999,0,0.01
2012-7-26,78,65,53,-100,-100,-100,0,0,100,0.00,40.00,0,-999,0,0.00
2012-7-27,76,65,54,-100,-100,-100,0,0,100,0.00,40.00,0,-999,0,0.00
2012-7-28,77,63,57,-100,-100,-100,0,0,100,0.00,40.00,0,-999,0,0.00
2012-7-29,71,62,57,-100,-100,-100,0,0,100,0.00,40.00,0,-999,0,0.01
2012-7-30,72,61,54,-100,-100,-100,0,0,100,0.00,40.00,0,-999,0,0.01
2012-7-31,74,60,52,-100,-100,-100,0,0,100,0.00,40.00,0,-999,0,0.04
2012-8-1,72,62,53,-100,-100,-100,0,0,100,0.00,40.00,0,-999,0,0.04
2012-8-2,75,63,53,-100,-100,-100,0,0,100,0.00,40.00,0,-999,0,0.00
2012-8-3,78,64,51,-100,-100,-100,0,0,100,0.00,40.00,0,-999,0,0.00
2012-8-4,75,64,53,-100,-100,-100,0,0,100,0.00,40.00,0,-999,0,0.00
2012-8-5,74,61,52,-100,-100,-100,0,0,100,0.00,40.00,0,-999,0,0.01
2012-8-6,81,65,55,-100,-100,-100,0,0,100,0.00,40.00,0,-999,0,0.00
2012-8-7,78,64,56,-100,-100,-100,0,0,100,0.00,40.00,0,-999,0,0.02
2012-8-8,85,66,52,-100,-100,-100,0,0,100,0.00,40.00,0,-999,0,0.01
2012-8-9,81,73,56,-100,-100,-100,0,0,100,0.00,40.00,0,-999,0,0.00
2012-8-10,85,72,59,-100,-100,-100,0,0,100,0.00,40.00,0,-999,0,0.00
2012-8-11,83,69,54,-100,-100,-100,0,0,100,0.00,40.00,0,-999,0,0.00
2012-8-12,81,66,56,-100,-100,-100,0,0,100,0.00,40.00,0,-999,0,0.00
2012-8-13,82,67,56,-100,-100,-100,0,0,100,0.00,40.00,0,-999,0,0.00
2012-8-14,81,68,53,-100,-100,-100,0,0,100,0.00,40.00,0,-999,0,0.00
2012-8-15,77,65,54,-100,-100,-100,0,0,100,0.00,40.00,0,-999,0,0.01
2012-8-16,77,61,55,-100,-100,-100,0,0,100,0.00,40.00,0,-999,0,0.02
2012-8-17,71,62,55,-100,-100,-100,0,0,100,0.00,40.00,0,-999,0,0.01
2012-8-18,75,61,55,-100,-100,-100,0,0,100,0.00,40.00,0,-999,0,0.01
2012-8-19,77,65,54,-100,-100,-100,0,0,100,0.00,40.00,0,-999,0,0.01
2012-8-20,75,63,54,-100,-100,-100,0,0,100,0.00,40.00,0,-999,0,0.00
2012-8-21,74,62,56,-100,-100,-100,0,0,100,0.00,40.00,0,-999,0,0.01
2012-8-22,70,60,52,-100,-100,-100,0,0,100,0.00,40.00,0,-999,0,0.01
2012-8-23,67,58,52,-100,-100,-100,0,0,100,0.00,40.00,0,-999,0,0.04
2012-8-24,70,58,51,-100,-100,-100,0,0,100,0.00,40.00,0,-999,0,0.01
2012-8-25,73,60,52,-100,-100,-100,0,0,100,0.00,40.00,0,-999,0,0.04
2012-8-26,74,60,50,-100,-100,-100,0,0,100,0.00,40.00,0,-999,0,0.04
2012-8-27,77,62,51,-100,-100,-100,0,0,100,0.00,40.00,0,-999,0,0.00
2012-8-28,77,63,52,-100,-100,-100,0,0,100,0.00,40.00,0,-999,0,0.01
2012-8-29,78,64,51,-100,-100,-100,0,0,100,0.00,40.00,0,-999,0,0.00
2012-8-30,77,64,54,-100,-100,-100,0,0,100,0.00,40.00,0,-999,0,0.00
2012-8-31,74,62,53,-100,-100,-100,0,0,100,0.00,40.00,0,-999,0,0.00
2012-9-1,69,59,50,-100,-100,-100,0,0,100,0.00,40.00,0,-999,0,0.01
2012-9-2,73,62,54,-100,-100,-100,0,0,100,0.00,40.00,0,-999,0,0.00
2012-9-3,74,60,50,-100,-100,-100,0,0,100,0.00,40.00,0,-999,0,0.01
2012-9-4,75,60,51,-100,-100,-100,0,0,100,0.00,40.00,0,-999,0,0.01
2012-9-5,74,60,49,-100,-100,-100,0,0,100,0.00,40.00,0,-999,0,0.01
2012-9-6,75,63,50,-100,-100,-100,0,0,100,0.00,40.00,0,-999,0,0.01
2012-9-7,65,60,55,-100,-100,-100,0,0,100,0.00,40.00,0,-999,0,0.01
2012-9-8,73,63,51,-100,-100,-100,0,0,100,0.00,40.00,0,-999,0,0.00
2012-9-9,74,59,45,-100,-100,-100,0,0,100,0.00,40.00,0,-999,0,0.00
2012-9-10,68,59,53,-100,-100,-100,0,0,100,0.00,40.00,0,-999,0,0.00
2012-9-11,55,54,51,-100,-100,-100,0,0,100,0.00,40.00,0,-999,0,0.02
2012-9-12,66,56,50,-100,-100,-100,0,0,100,0.00,40.00,0,-999,0,0.01
2012-9-13,67,58,49,-100,-100,-100,0,0,100,0.00,40.00,0,-999,0,0.00
2012-9-14,65,55,47,-100,-100,-100,0,0,100,0.00,40.00,0,-999,0,0.00
2012-9-15,73,56,41,-100,-100,-100,0,0,100,0.00,40.00,0,-999,0,0.00
2012-9-16,72,56,40,-100,-100,-100,0,0,100,0.00,40.00,0,-999,0,0.00
2012-9-17,72,57,41,-100,-100,-100,0,0,100,0.00,40.00,0,-999,0,0.00
2012-9-18,74,58,40,-100,-100,-100,0,0,100,0.00,40.00,0,-999,0,0.00
2012-9-19,75,58,40,-100,-100,-100,0,0,100,0.00,40.00,0,-999,0,0.00
2012-9-20,75,61,46,-100,-100,-100,0,0,100,0.00,40.00,0,-999,0,0.00
2012-9-21,76,59,43,-100,-100,-100,0,0,100,0.00,40.00,0,-999,0,0.00
2012-9-22,76,56,45,-100,-100,-100,0,0,100,0.00,40.00,0,-999,0,0.00
2012-9-23,72,58,46,-100,-100,-100,0,0,100,0.00,40.00,0,-999,0,0.24
2012-9-24,71,57,45,-100,-100,-100,0,0,100,0.00,40.00,0,-999,0,0.00
2012-9-25,69,56,45,-100,-100,-100,0,0,100,0.00,40.00,0,-999,0,0.00
2012-9-26,67,51,37,-100,-100,-100,0,0,100,0.00,40.00,0,-999,0,0.00
2012-9-27,70,54,38,-100,-100,-100,0,0,100,0.00,40.00,0,-999,0,0.00
2012-9-28,67,52,41,-100,-100,-100,0,0,100,0.00,40.00,0,-999,0,0.00
2012-9-29,70,52,41,-100,-100,-100,0,0,100,0.00,40.00,0,-999,0,0.00
2012-9-30,72,57,40,-100,-100,-100,0,0,100,0.00,40.00,0,-999,0,0.00
2012-10-1,74,60,47,-100,-100,-100,0,0,100,0.00,40.00,0,-999,0,0.00
2012-10-2,75,57,40,-100,-100,-100,0,0,100,0.00,40.00,0,-999,0,0.00
2012-10-3,74,56,39,-100,-100,-100,0,0,100,0.00,40.00,0,-999,0,0.00
2012-10-4,70,57,43,-100,-100,-100,0,0,100,0.00,40.00,0,-999,0,0.00
2012-10-5,69,53,36,-100,-100,-100,0,0,100,0.00,40.00,0,-999,0,0.00
2012-10-6,67,52,38,-100,-100,-100,0,0,100,0.00,40.00,0,-999,0,0.00
2012-10-7,68,50,34,-100,-100,-100,0,0,100,0.00,40.00,0,-999,0,0.00
2012-10-8,65,50,35,-100,-100,-100,0,0,100,0.00,40.00,0,-999,0,0.00
2012-10-9,65,51,36,-100,-100,-100,0,0,100,0.00,40.00,0,-999,0,0.00
2012-10-10,64,49,35,-100,-100,-100,0,0,100,0.00,40.00,0,-999,0,0.00
2012-10-11,60,47,35,-100,-100,-100,0,0,100,0.00,40.00,0,-999,0,0.01
2012-10-12,45,41,35,-100,-100,-100,0,0,100,0.00,40.00,0,-999,0,0.04
2012-10-13,60,43,31,-100,-100,-100,0,0,100,0.00,40.00,0,-999,0,0.01
2012-10-14,62,53,43,-100,-100,-100,0,0,100,0.00,40.00,0,-999,0,0.00
2012-10-15,67,52,38,-100,-100,-100,0,0,100,0.00,40.00,0,-999,0,0.00
2012-10-16,69,53,35,-100,-100,-100,0,0,100,0.00,40.00,0,-999,0,0.00
2012-10-17,70,53,40,-100,-100,-100,0,0,100,0.00,40.00,0,-999,0,0.00
2012-10-18,67,49,33,-100,-100,-100,0,0,100,0.00,40.00,0,-999,0,0.00
2012-10-19,72,52,33,-100,-100,-100,0,0,100,0.00,40.00,0,-999,0,0.00
2012-10-20,63,48,33,-100,-100,-100,0,0,100,0.00,40.00,0,-999,0,0.00
2012-10-21,59,49,38,-100,-100,-100,0,0,100,0.00,40.00,0,-999,0,0.00
2012-10-22,58,50,42,-100,-100,-100,0,0,100,0.00,40.00,0,-999,0,0.00
2012-10-23,58,50,43,-100,-100,-100,0,0,100,0.00,40.00,0,-999,0,0.00
2012-10-24,58,46,34,-100,-100,-100,0,0,100,0.00,40.00,0,-999,0,0.00
2012-10-25,54,40,25,-100,-100,-100,0,0,100,0.00,40.00,0,-999,0,0.00
2012-10-26,48,39,33,-100,-100,-100,0,0,100,0.00,40.00,0,-999,0,0.00
2012-10-27,65,46,28,-100,-100,-100,0,0,100,0.00,40.00,0,-999,0,0.00
2012-10-28,65,48,35,-100,-100,-100,0,0,100,0.00,40.00,0,-999,0,0.00
2012-10-29,66,46,29,-100,-100,-100,0,0,100,0.00,40.00,0,-999,0,0.00
2012-10-30,66,44,29,-100,-100,-100,0,0,100,0.00,40.00,0,-999,0,0.00
2012-10-31,66,43,30,-100,-100,-100,0,0,100,0.00,40.00,0,-999,0,0.00
2012-11-1,62,45,29,-100,-100,-100,0,0,100,0.00,40.00,0,-999,0,0.00
2012-11-2,59,45,34,-100,-100,-100,0,0,100,0.00,40.00,0,-999,0,0.00
2012-11-3,60,43,30,-100,-100,-100,0,0,100,0.00,40.00,0,-999,0,0.00
2012-11-4,63,46,29,-100,-100,-100,0,0,100,0.00,40.00,0,-999,0,0.00
2012-11-5,65,52,39,-100,-100,-100,0,0,100,0.00,40.00,0,-999,0,0.00
2012-11-6,67,53,38,-100,-100,-100,0,0,100,0.00,40.00,0,-999,0,0.00
2012-11-7,65,46,31,-100,-100,-100,0,0,100,0.00,40.00,0,-999,0,0.00
2012-11-8,58,44,33,-100,-100,-100,0,0,100,0.00,40.00,0,-999,0,0.01
2012-11-9,45,42,34,-100,-100,-100,0,0,100,0.00,40.00,0,-999,0,0.03
2012-11-10,33,28,18,-100,-100,-100,0,0,100,0.00,40.00,0,-999,0,0.02
2012-11-11,37,26,15,-100,-100,-100,0,0,100,0.00,40.00,0,-999,0,0.01
2012-11-12,43,34,27,-100,-100,-100,0,0,100,0.00,40.00,0,-999,0,0.00
2012-11-13,51,38,29,-100,-100,-100,0,0,100,0.00,40.00,0,-999,0,0.00
2012-11-14,54,39,29,-100,-100,-100,0,0,100,0.00,40.00,0,-999,0,0.00
2012-11-15,53,38,26,-100,-100,-100,0,0,100,0.00,40.00,0,-999,0,0.00
2012-11-16,55,44,35,-100,-100,-100,0,0,100,0.00,40.00,0,-999,0,0.01
2012-11-17,53,41,29,-100,-100,-100,0,0,100,0.00,40.00,0,-999,0,0.00
2012-11-18,49,38,30,-100,-100,-100,0,0,100,0.00,40.00,0,-999,0,0.00
2012-11-19,53,36,25,-100,-100,-100,0,0,100,0.00,40.00,0,-999,0,0.00
2012-11-20,59,39,26,-100,-100,-100,0,0,100,0.00,40.00,0,-999,0,0.00
2012-11-21,56,38,25,-100,-100,-100,0,0,100,0.00,40.00,0,-999,0,0.00
2012-11-22,59,41,26,-100,-100,-100,0,0,100,0.00,40.00,0,-999,0,0.00
2012-11-23,59,46,36,-100,-100,-100,0,0,100,0.00,40.00,0,-999,0,0.00
2012-11-24,60,41,28,-100,-100,-100,0,0,100,0.00,40.00,0,-999,0,0.00
2012-11-25,56,39,26,-100,-100,-100,0,0,100,0.00,40.00,0,-999,0,0.00
2012-11-26,37,29,27,-100,-100,-100,0,0,100,0.00,40.00,0,-999,0,0.00
2012-11-27,54,38,26,-100,-100,-100,0,0,100,0.00,40.00,0,-999,0,0.00
2012-11-28,55,41,27,-100,-100,-100,0,0,100,0.00,40.00,0,-999,0,0.00
2012-11-29,53,40,27,-100,-100,-100,0,0,100,0.00,40.00,0,-999,0,0.00
2012-11-30,51,39,29,-100,-100,-100,0,0,100,0.00,40.00,0,-999,0,0.00
2012-12-1,53,41,32,-100,-100,-100,0,0,100,0.00,40.00,0,-999,0,0.00
2012-12-2,52,39,27,-100,-100,-100,0,0,100,0.00,40.00,0,-999,0,0.00
2012-12-3,51,40,30,-100,-100,-100,0,0,100,0.00,40.00,0,-999,0,0.00
2012-12-4,56,42,29,-100,-100,-100,0,0,100,0.00,40.00,0,-999,0,0.00
2012-12-5,59,41,29,-100,-100,-100,0,0,100,0.00,40.00,0,-999,0,0.00
2012-12-6,53,39,30,-100,-100,-100,0,0,100,0.00,40.00,0,-999,0,0.00
2012-12-7,51,36,26,-100,-100,-100,0,0,100,0.00,40.00,0,-999,0,0.00
2012-12-8,47,29,25,-100,-100,-100,0,0,100,0.00,40.00,0,-999,0,0.00
2012-12-9,44,32,24,-100,-100,-100,0,0,100,0.00,40.00,0,-999,0,0.00
2012-12-10,46,34,22,-100,-100,-100,0,0,100,0.00,40.00,0,-999,0,0.00
2012-12-11,43,29,19,-100,-100,-100,0,0,100,0.00,40.00,0,-999,0,0.00
2012-12-12,44,34,23,-100,-100,-100,0,0,100,0.00,40.00,0,-999,0,0.00
2012-12-13,42,36,29,-100,-100,-100,0,0,100,0.00,40.00,0,-999,0,0.01
2012-12-14,35,30,27,-100,-100,-100,0,0,100,0.00,40.00,0,-999,0,0.05
2012-12-15,32,27,12,-100,-100,-100,0,0,100,0.00,40.00,0,-999,0,0.05
2012-12-16,36,25,12,-100,-100,-100,0,0,100,0.00,40.00,0,-999,0,0.01
2012-12-17,35,32,28,-100,-100,-100,0,0,100,0.00,40.00,0,-999,0,0.01
2012-12-18,35,34,31,-100,-100,-100,0,0,100,0.00,40.00,0,-999,0,0.02
2012-12-19,30,22,15,-100,-100,-100,0,0,100,0.00,40.00,0,-999,0,0.02
2012-12-20,39,24,17,-100,-100,-100,0,0,100,0.00,40.00,0,-999,0,0.01
2012-12-21,48,28,12,-100,-100,-100,0,0,100,0.00,40.00,0,-999,0,0.00
2012-12-22,47,32,22,-100,-100,-100,0,0,100,0.00,40.00,0,-999,0,0.00
2012-12-23,45,32,22,-100,-100,-100,0,0,100,0.00,40.00,0,-999,0,0.00
2012-12-24,35,29,24,-100,-100,-100,0,0,100,0.00,40.00,0,-999,0,0.01
2012-12-25,33,22,9,-100,-100,-100,0,0,100,0.00,40.00,0,-999,0,0.01
2012-12-26,33,26,18,-100,-100,-100,0,0,100,0.00,40.00,0,-999,0,0.01
2012-12-27,30,23,13,-100,-100,-100,0,0,100,0.00,40.00,0,-999,0,0.01
2012-12-28,36,23,11,-100,-100,-100,0,0,100,0.00,40.00,0,-999,0,0.01
2012-12-29,36,26,18,-100,-100,-100,0,0,100,0.00,40.00,0,-999,0,0.00
2012-12-30,34,27,19,-100,-100,-100,0,0,100,0.00,40.00,0,-999,0,0.01
2012-12-31,27,22,12,-100,-100,-100,0,0,100,0.00,40.00,0,-999,0,0.01
2013-1-1,34,18,-3,-100,-100,-100,0,0,100,0.00,40.00,0,-999,0,0.01